createdAt,value
2023-05-13T00:04:51.094Z,7.72
2023-05-13T00:09:52.834Z,7.00
2023-05-13T00:14:54.434Z,6.40
2023-05-13T00:19:56.152Z,6.65
2023-05-13T00:24:57.763Z,7.03
2023-05-13T00:30:00.011Z,6.50
2023-05-13T00:35:01.764Z,5.85
2023-05-13T00:40:03.807Z,5.82
2023-05-13T00:45:06.486Z,6.30
2023-05-13T00:50:10.240Z,5.80
2023-05-13T00:55:12.130Z,6.03
2023-05-13T01:00:14.360Z,5.80
2023-05-13T01:05:27.173Z,5.70
2023-05-13T01:10:51.408Z,5.45
2023-05-13T01:16:01.528Z,6.18
2023-05-13T01:21:06.471Z,5.70
2023-05-13T01:26:08.235Z,6.35
2023-05-13T01:31:10.959Z,6.07
2023-05-13T01:36:14.399Z,5.68
2023-05-13T01:41:16.304Z,6.53
2023-05-13T01:46:18.691Z,6.60
2023-05-13T01:51:20.645Z,6.18
2023-05-13T01:56:22.455Z,6.65
2023-05-13T02:01:24.575Z,6.22
2023-05-13T02:06:28.182Z,6.88
2023-05-13T02:11:30.035Z,7.30
2023-05-13T02:16:32.690Z,7.50
2023-05-13T02:21:34.906Z,7.05
2023-05-13T02:26:36.578Z,7.43
2023-05-13T02:31:38.222Z,7.30
2023-05-13T02:36:39.902Z,7.20
2023-05-13T02:41:41.798Z,7.43
2023-05-13T02:46:44.255Z,7.65
2023-05-13T02:51:46.284Z,7.88
2023-05-13T02:56:48.187Z,7.47
2023-05-13T03:01:50.128Z,7.38
2023-05-13T03:06:52.940Z,6.88
2023-05-13T03:11:54.609Z,8.30
2023-05-13T03:16:56.300Z,7.75
2023-05-13T03:21:58.065Z,8.40
2023-05-13T03:27:00.097Z,8.15
2023-05-13T03:32:02.234Z,7.60
2023-05-13T03:37:04.137Z,7.88
2023-05-13T03:42:06.855Z,9.13
2023-05-13T03:47:09.107Z,8.75
2023-05-13T03:52:10.789Z,8.95
2023-05-13T03:57:12.606Z,9.60
2023-05-13T04:02:14.682Z,7.68
2023-05-13T04:07:16.354Z,8.48
2023-05-13T04:12:18.200Z,8.68
2023-05-13T04:17:20.139Z,9.85
2023-05-13T04:22:22.097Z,10.32
2023-05-13T04:27:24.680Z,12.18
2023-05-13T04:32:31.882Z,10.15
2023-05-13T04:37:33.838Z,8.75
2023-05-13T04:42:39.584Z,7.30
2023-05-13T04:47:41.401Z,7.20
2023-05-13T04:52:43.251Z,6.45
2023-05-13T04:57:45.584Z,5.88
2023-05-13T05:02:47.422Z,5.15
2023-05-13T05:07:49.260Z,4.85
2023-05-13T05:12:52.587Z,4.80
2023-05-13T05:17:57.218Z,4.55
2023-05-13T05:22:59.694Z,4.43
2023-05-13T05:28:05.356Z,4.43
2023-05-13T05:33:09.157Z,4.65
2023-05-13T05:38:13.571Z,4.05
2023-05-13T05:43:16.803Z,4.45
2023-05-13T05:48:18.853Z,3.80
2023-05-13T05:53:21.946Z,3.40
2023-05-13T05:58:24.043Z,3.35
2023-05-13T06:03:27.190Z,2.90
2023-05-13T06:08:30.916Z,3.60
2023-05-13T06:13:33.286Z,2.65
2023-05-13T06:18:35.094Z,2.90
2023-05-13T06:23:37.827Z,2.75
2023-05-13T06:28:39.622Z,2.15
2023-05-13T06:33:41.284Z,2.63
2023-05-13T06:38:42.964Z,2.60
2023-05-13T06:43:46.604Z,2.80
2023-05-13T06:48:56.785Z,3.30
2023-05-13T06:53:58.935Z,2.75
2023-05-13T06:59:01.695Z,2.63
2023-05-13T07:04:03.489Z,2.00
2023-05-13T07:09:08.482Z,2.90
2023-05-13T07:14:10.366Z,2.20
2023-05-13T07:19:12.217Z,2.35
2023-05-13T07:24:14.612Z,2.20
2023-05-13T07:29:16.346Z,2.03
2023-05-13T07:34:17.957Z,2.22
2023-05-13T07:39:19.601Z,2.38
2023-05-13T07:44:21.611Z,2.05
2023-05-13T07:49:23.189Z,1.75
2023-05-13T07:54:24.828Z,1.88
2023-05-13T07:59:26.502Z,1.48
2023-05-13T08:04:28.322Z,1.77
2023-05-13T08:09:29.994Z,1.50
2023-05-13T08:14:31.652Z,1.40
2023-05-13T08:19:33.447Z,1.60
2023-05-13T08:24:35.055Z,1.70
2023-05-13T08:29:36.643Z,1.48
2023-05-13T08:34:38.325Z,1.60
2023-05-13T08:39:39.890Z,1.67
2023-05-13T08:44:44.405Z,1.60
2023-05-13T08:49:46.647Z,1.50
2023-05-13T08:54:49.088Z,1.50
2023-05-13T08:59:51.315Z,1.40
2023-05-13T09:04:55.315Z,1.25
2023-05-13T09:09:57.762Z,1.20
2023-05-13T09:14:59.423Z,1.30
2023-05-13T09:20:07.680Z,1.60
2023-05-13T09:25:12.830Z,1.58
2023-05-13T09:30:15.074Z,1.95
2023-05-13T09:35:17.080Z,1.38
2023-05-13T09:40:19.135Z,1.77
2023-05-13T09:45:24.019Z,1.73
2023-05-13T09:50:25.939Z,1.77
2023-05-13T09:55:29.006Z,1.60
2023-05-13T10:00:33.130Z,1.80
2023-05-13T10:05:36.464Z,1.70
2023-05-13T10:10:39.116Z,1.70
2023-05-13T10:15:51.535Z,1.98
2023-05-13T10:20:54.055Z,1.65
2023-05-13T10:25:59.295Z,1.70
2023-05-13T10:31:00.908Z,1.52
2023-05-13T10:36:36.928Z,1.55
2023-05-13T10:42:00.027Z,1.90
2023-05-13T10:47:02.869Z,1.73
2023-05-13T10:52:08.471Z,1.45
2023-05-13T10:57:10.515Z,2.10
2023-05-13T11:02:23.610Z,1.50
2023-05-13T11:07:28.588Z,1.52
2023-05-13T11:12:30.385Z,1.63
2023-05-13T11:17:33.998Z,1.63
2023-05-13T11:22:36.962Z,1.50
2023-05-13T11:27:40.471Z,1.60
2023-05-13T11:32:54.149Z,1.27
2023-05-13T11:37:59.113Z,1.60
2023-05-13T11:43:02.150Z,1.60
2023-05-13T11:48:23.772Z,1.73
2023-05-13T11:53:25.445Z,1.25
2023-05-13T11:58:27.425Z,1.50
2023-05-13T12:03:29.050Z,1.20
2023-05-13T12:08:30.736Z,1.55
2023-05-13T12:13:32.404Z,1.35
2023-05-13T12:18:34.541Z,1.33
2023-05-13T12:23:40.820Z,1.17
2023-05-13T12:28:42.729Z,1.05
2023-05-13T12:33:46.860Z,1.10
2023-05-13T12:39:01.672Z,1.02
2023-05-13T12:44:14.294Z,1.10
2023-05-13T12:49:15.924Z,1.50
2023-05-13T12:54:17.924Z,0.90
2023-05-13T12:59:19.572Z,1.30
2023-05-13T13:04:21.247Z,1.10
2023-05-13T13:09:22.965Z,1.10
2023-05-13T13:14:26.116Z,1.15
2023-05-13T13:19:27.802Z,1.15
2023-05-13T13:24:29.504Z,1.13
2023-05-13T13:29:31.163Z,1.40
2023-05-13T13:34:32.794Z,1.17
2023-05-13T13:39:34.940Z,1.33
2023-05-13T13:44:38.347Z,1.33
2023-05-13T13:49:39.999Z,1.10
2023-05-13T13:54:41.743Z,1.30
2023-05-13T13:59:43.389Z,1.25
2023-05-13T14:04:46.456Z,1.45
2023-05-13T14:09:49.739Z,1.30
2023-05-13T14:14:51.343Z,1.30
2023-05-13T14:19:55.108Z,1.45
2023-05-13T14:24:56.839Z,1.30
2023-05-13T14:29:58.998Z,1.38
2023-05-13T14:35:00.663Z,1.50
2023-05-13T14:40:02.572Z,1.67
2023-05-13T14:45:04.737Z,1.88
2023-05-13T14:50:07.087Z,1.70
2023-05-13T14:55:09.190Z,1.67
2023-05-13T15:00:11.669Z,2.00
2023-05-13T15:05:13.708Z,1.45
2023-05-13T15:10:15.880Z,1.55
2023-05-13T15:15:17.520Z,1.30
2023-05-13T15:20:19.321Z,1.80
2023-05-13T15:25:21.212Z,1.58
2023-05-13T15:30:23.334Z,1.88
2023-05-13T15:35:25.206Z,3.38
2023-05-13T15:40:27.054Z,1.90
2023-05-13T15:45:29.110Z,2.13
2023-05-13T15:50:31.085Z,1.77
2023-05-13T15:55:34.065Z,1.58
2023-05-13T16:00:35.896Z,1.55
2023-05-13T16:05:38.709Z,1.20
2023-05-13T16:10:40.303Z,1.50
2023-05-13T16:15:41.963Z,1.40
2023-05-13T16:20:43.593Z,1.95
2023-05-13T16:25:45.461Z,1.73
2023-05-13T16:30:47.120Z,1.48
2023-05-13T16:35:48.737Z,1.65
2023-05-13T16:40:50.405Z,1.73
2023-05-13T16:45:52.050Z,2.05
2023-05-13T16:50:53.890Z,2.17
2023-05-13T16:55:55.559Z,2.05
2023-05-13T17:00:59.222Z,2.58
2023-05-13T17:06:01.291Z,2.28
2023-05-13T17:11:02.900Z,3.75
2023-05-13T17:16:04.929Z,3.03
2023-05-13T17:21:07.012Z,3.47
2023-05-13T17:26:08.812Z,2.80
2023-05-13T17:31:10.602Z,2.80
2023-05-13T17:36:12.231Z,2.55
2023-05-13T17:41:16.688Z,3.53
2023-05-13T17:46:18.335Z,6.35
2023-05-13T17:51:19.920Z,5.55
2023-05-13T17:56:21.574Z,4.18
2023-05-13T18:01:23.451Z,3.00
2023-05-13T18:06:25.072Z,2.97
2023-05-13T18:11:27.346Z,3.58
2023-05-13T18:16:29.179Z,2.90
2023-05-13T18:21:31.672Z,3.80
2023-05-13T18:26:33.558Z,3.63
2023-05-13T18:31:35.250Z,4.05
2023-05-13T18:36:36.920Z,4.57
2023-05-13T18:41:38.548Z,4.57
2023-05-13T18:46:40.347Z,3.72
2023-05-13T18:51:42.136Z,4.10
2023-05-13T18:56:44.093Z,4.28
2023-05-13T19:01:46.554Z,6.55
2023-05-13T19:06:48.271Z,6.22
2023-05-13T19:11:49.951Z,6.50
2023-05-13T19:16:51.875Z,5.68
2023-05-13T19:21:53.613Z,5.53
2023-05-13T19:26:55.278Z,5.13
2023-05-13T19:31:57.161Z,5.10
2023-05-13T19:36:59.119Z,4.88
2023-05-13T19:42:00.892Z,5.18
2023-05-13T19:47:02.844Z,7.85
2023-05-13T19:52:04.868Z,8.15
2023-05-13T19:57:07.983Z,8.43
2023-05-13T20:02:10.373Z,8.63
2023-05-13T20:07:12.082Z,8.50
2023-05-13T20:12:13.656Z,6.93
2023-05-13T20:17:19.820Z,7.72
2023-05-13T20:22:21.831Z,24.00
2023-05-13T20:27:23.529Z,147.65
2023-05-13T20:32:25.255Z,110.00
2023-05-13T20:37:29.792Z,15.98
2023-05-13T20:42:31.926Z,20.23
2023-05-13T20:47:33.616Z,18.25
2023-05-13T20:52:35.355Z,22.65
2023-05-13T20:57:37.089Z,14.23
2023-05-13T21:02:38.982Z,16.27
2023-05-13T21:07:40.798Z,19.75
2023-05-13T21:12:47.108Z,23.83
2023-05-13T21:17:48.756Z,20.42
2023-05-13T21:22:50.379Z,16.45
2023-05-13T21:27:51.991Z,13.35
2023-05-13T21:32:53.891Z,12.60
2023-05-13T21:38:01.431Z,18.95
2023-05-13T21:43:12.924Z,80.70
2023-05-13T21:48:14.917Z,37.90
2023-05-13T21:53:17.054Z,62.88
2023-05-13T21:58:19.433Z,13.35
2023-05-13T22:03:22.369Z,26.50
2023-05-13T22:08:24.073Z,70.38
2023-05-13T22:13:25.789Z,12.98
2023-05-13T22:18:27.594Z,12.07
2023-05-13T22:23:29.261Z,11.48
2023-05-13T22:28:31.139Z,41.63
2023-05-13T22:33:32.810Z,22.42
2023-05-13T22:38:34.425Z,22.13
2023-05-13T22:43:36.040Z,20.70
2023-05-13T22:48:37.662Z,19.05
2023-05-13T22:53:39.303Z,17.27
2023-05-13T22:58:40.975Z,11.93
2023-05-13T23:03:42.756Z,10.05
2023-05-13T23:08:44.404Z,16.85
2023-05-13T23:13:46.049Z,16.70
2023-05-13T23:18:47.714Z,9.70
2023-05-13T23:23:50.391Z,9.52
2023-05-13T23:28:51.964Z,10.00
2023-05-13T23:33:53.614Z,9.70
2023-05-13T23:38:55.318Z,9.50
2023-05-13T23:43:56.906Z,10.18
2023-05-13T23:48:58.534Z,10.38
2023-05-13T23:54:00.889Z,9.93
2023-05-13T23:59:02.612Z,10.90
